Cuthbert, GA (39840)

3:13 AM EDT on July 26, 2014 (GMT -0400)
Pebble Cove (KALABBEV2) Elev 226 ft | 31.71 °N, 85.13 °W | Change Station

Current weather conditions updated 1 minute ago

Partly Cloudy
Partly Cloudy
76.1 °F
Feels Like 76 °F
N
0.0
Wind Variable Wind from WSW

Today is forecast to be Warmer than yesterday.

Today
High -- | Low -- °F
--% Chance of Precip.
Yesterday
High -- | Low -- °F
Precip. -- in
6:51 AM 8:39 PM
Waning Crescent, 0% visible
Pressure 30.00 in
Visibility 6.0 miles
Clouds Few 800 ft
Heat Index 76 °F
Dew Point 75 °F
Humidity 95%
Rainfall 0.00 in
Snow Depth Not available.
UV 0.0 out of 12
Pollen 4.50 out of 12
Air Quality Not available.
Flu Activity Not available.
SPECI KEUF 260706Z AUTO 00000KT 6SM BR FEW008 23/22 A3000 RMK AO2 $

More Conditions Fewer Conditions

Pressure 30.00 in
Visibility 6.0 miles
Clouds Few 800 ft
Heat Index 76 °F
Dew Point 75 °F
Humidity 95%
Rainfall 0.00 in
Snow Depth Not available.
UV 0.0 out of 12
Pollen 4.50 out of 12
Air Quality Not available.
Flu Activity Not available.
SPECI KEUF 260706Z AUTO 00000KT 6SM BR FEW008 23/22 A3000 RMK AO2 $

More Conditions Fewer Conditions

10-Day Weather Forecast

Almanac

Astronomy

Jul. 26, 2014 Rise Set
Actual Time 6:51 AM EDT 8:39 PM EDT
Civil Twilight 6:24 AM EDT 9:06 PM EDT
Nautical Twilight 5:51 AM EDT 9:39 PM EDT
Astronomical Twilight 5:17 AM EDT 10:13 PM EDT
Moon 6:38 AM EDT 8:19 PM EDT
Length of Visible Light 14h 42m
Length of Day
13h 48m
Tomorrow will be 1m 18s shorter.
Waning Crescent, 0% of the Moon is Illuminated
Today
Waning Crescent
Jul 26
New
Aug 3
First Quarter
Aug 10
Full
Aug 17
Last Quarter

Today's Extremes

State Highs State Lows

Community

WunderPhotos

Upload Photos

1,737,524 photos uploaded!

Nearby

Snow Depth

Station Depth Elevation
No new snow has been reported.

Earthquake Activity

City Distance Mag. Time & Date
No recent earthquake activity has been reported nearby.
Minimum magnitude displayed is 2.5.

Coastal Water Temperatures

Place Temperature
No Stations Reporting

Nearby Weather Stations

Station Location Temp. Heat Index Dew Point Humidity Wind Precip. Elev Updated Type
Pebble Cove, Abbeville, AL 76.1 °F 76 °F 75 °F 95% WSW  at  0.0 mph - / hr 226 ft 2:12 AM CDT Normal
Coolbranch North of Lakepoint, Eufaula, AL 74.3 °F 71 °F 74 °F 99% SE  at  0.0 mph 0.00 in / hr 236 ft 2:13 AM CDT Rapid Fire

Show More Stations Show Fewer Stations